sensor_id;sensor_type;location;lat;lon;timestamp;P1;durP1;ratioP1;P2;durP2;ratioP2
25938;SDS011;13739;51.172;4.466;2023-03-26T00:01:21;28.80;;;3.35;;
25938;SDS011;13739;51.172;4.466;2023-03-26T00:03:48;25.63;;;3.72;;
25938;SDS011;13739;51.172;4.466;2023-03-26T00:06:28;19.42;;;3.03;;
25938;SDS011;13739;51.172;4.466;2023-03-26T00:08:57;16.30;;;2.83;;
25938;SDS011;13739;51.172;4.466;2023-03-26T00:11:24;22.80;;;3.10;;
25938;SDS011;13739;51.172;4.466;2023-03-26T00:13:51;24.40;;;3.47;;
25938;SDS011;13739;51.172;4.466;2023-03-26T00:16:20;16.40;;;2.63;;
25938;SDS011;13739;51.172;4.466;2023-03-26T00:18:46;23.42;;;3.38;;
25938;SDS011;13739;51.172;4.466;2023-03-26T00:21:14;25.35;;;2.70;;
25938;SDS011;13739;51.172;4.466;2023-03-26T00:23:42;13.98;;;2.40;;
25938;SDS011;13739;51.172;4.466;2023-03-26T00:26:08;25.10;;;3.47;;
25938;SDS011;13739;51.172;4.466;2023-03-26T00:28:39;21.88;;;2.90;;
25938;SDS011;13739;51.172;4.466;2023-03-26T00:31:06;18.17;;;2.20;;
25938;SDS011;13739;51.172;4.466;2023-03-26T00:33:35;18.90;;;2.55;;
25938;SDS011;13739;51.172;4.466;2023-03-26T00:36:03;29.05;;;3.13;;
25938;SDS011;13739;51.172;4.466;2023-03-26T00:38:30;23.05;;;2.55;;
25938;SDS011;13739;51.172;4.466;2023-03-26T00:40:58;17.08;;;2.72;;
25938;SDS011;13739;51.172;4.466;2023-03-26T00:43:30;21.35;;;3.00;;
25938;SDS011;13739;51.172;4.466;2023-03-26T00:45:59;22.58;;;3.17;;
25938;SDS011;13739;51.172;4.466;2023-03-26T00:48:26;22.05;;;2.83;;
25938;SDS011;13739;51.172;4.466;2023-03-26T00:50:54;22.65;;;2.85;;
25938;SDS011;13739;51.172;4.466;2023-03-26T00:53:21;25.75;;;3.08;;
25938;SDS011;13739;51.172;4.466;2023-03-26T00:55:47;20.15;;;2.70;;
25938;SDS011;13739;51.172;4.466;2023-03-26T00:58:13;18.83;;;2.95;;
25938;SDS011;13739;51.172;4.466;2023-03-26T01:00:45;21.33;;;2.10;;
25938;SDS011;13739;51.172;4.466;2023-03-26T01:03:25;16.35;;;2.40;;
25938;SDS011;13739;51.172;4.466;2023-03-26T01:05:58;17.65;;;2.67;;
25938;SDS011;13739;51.172;4.466;2023-03-26T01:08:42;20.70;;;2.60;;
25938;SDS011;13739;51.172;4.466;2023-03-26T01:11:14;21.67;;;3.15;;
25938;SDS011;13739;51.172;4.466;2023-03-26T01:13:51;17.13;;;2.38;;
25938;SDS011;13739;51.172;4.466;2023-03-26T01:18:51;15.13;;;2.60;;
25938;SDS011;13739;51.172;4.466;2023-03-26T01:21:22;18.33;;;2.95;;
25938;SDS011;13739;51.172;4.466;2023-03-26T01:45:44;19.70;;;3.03;;
25938;SDS011;13739;51.172;4.466;2023-03-26T01:48:13;18.52;;;2.88;;
25938;SDS011;13739;51.172;4.466;2023-03-26T01:50:39;11.10;;;1.90;;
25938;SDS011;13739;51.172;4.466;2023-03-26T01:53:04;15.48;;;2.75;;
25938;SDS011;13739;51.172;4.466;2023-03-26T01:55:45;15.98;;;2.42;;
25938;SDS011;13739;51.172;4.466;2023-03-26T02:01:56;16.08;;;2.05;;
25938;SDS011;13739;51.172;4.466;2023-03-26T02:07:43;14.45;;;2.15;;
25938;SDS011;13739;51.172;4.466;2023-03-26T02:10:29;16.35;;;2.08;;
25938;SDS011;13739;51.172;4.466;2023-03-26T02:12:57;12.38;;;1.80;;
25938;SDS011;13739;51.172;4.466;2023-03-26T02:15:23;11.77;;;2.25;;
25938;SDS011;13739;51.172;4.466;2023-03-26T02:17:49;19.05;;;2.50;;
25938;SDS011;13739;51.172;4.466;2023-03-26T02:20:17;10.13;;;2.05;;
25938;SDS011;13739;51.172;4.466;2023-03-26T02:22:44;13.75;;;2.20;;
25938;SDS011;13739;51.172;4.466;2023-03-26T02:25:12;13.02;;;2.22;;
25938;SDS011;13739;51.172;4.466;2023-03-26T02:27:40;15.13;;;2.40;;
25938;SDS011;13739;51.172;4.466;2023-03-26T02:30:07;15.15;;;2.45;;
25938;SDS011;13739;51.172;4.466;2023-03-26T02:32:34;10.50;;;1.67;;
25938;SDS011;13739;51.172;4.466;2023-03-26T02:35:01;12.10;;;2.10;;
25938;SDS011;13739;51.172;4.466;2023-03-26T02:37:27;13.50;;;2.90;;
25938;SDS011;13739;51.172;4.466;2023-03-26T02:39:54;19.02;;;2.60;;
25938;SDS011;13739;51.172;4.466;2023-03-26T02:42:20;14.95;;;2.05;;
25938;SDS011;13739;51.172;4.466;2023-03-26T02:44:46;15.07;;;2.58;;
25938;SDS011;13739;51.172;4.466;2023-03-26T02:47:12;13.93;;;2.30;;
25938;SDS011;13739;51.172;4.466;2023-03-26T02:49:38;11.85;;;1.85;;
25938;SDS011;13739;51.172;4.466;2023-03-26T02:52:03;13.38;;;2.38;;
25938;SDS011;13739;51.172;4.466;2023-03-26T02:54:31;15.13;;;2.60;;
25938;SDS011;13739;51.172;4.466;2023-03-26T02:56:59;18.83;;;2.83;;
25938;SDS011;13739;51.172;4.466;2023-03-26T02:59:25;18.10;;;2.60;;
25938;SDS011;13739;51.172;4.466;2023-03-26T03:01:51;13.15;;;2.20;;
25938;SDS011;13739;51.172;4.466;2023-03-26T03:04:17;13.95;;;2.03;;
25938;SDS011;13739;51.172;4.466;2023-03-26T03:06:43;11.98;;;2.00;;
25938;SDS011;13739;51.172;4.466;2023-03-26T03:09:09;15.05;;;2.65;;
25938;SDS011;13739;51.172;4.466;2023-03-26T03:11:39;14.80;;;1.90;;
25938;SDS011;13739;51.172;4.466;2023-03-26T03:14:05;17.83;;;2.25;;
25938;SDS011;13739;51.172;4.466;2023-03-26T03:16:31;6.00;;;1.92;;
25938;SDS011;13739;51.172;4.466;2023-03-26T03:18:57;13.35;;;2.03;;
25938;SDS011;13739;51.172;4.466;2023-03-26T03:21:23;16.40;;;2.83;;
25938;SDS011;13739;51.172;4.466;2023-03-26T03:23:54;15.45;;;2.88;;
25938;SDS011;13739;51.172;4.466;2023-03-26T03:26:22;12.45;;;1.95;;
25938;SDS011;13739;51.172;4.466;2023-03-26T03:28:54;13.48;;;2.70;;
25938;SDS011;13739;51.172;4.466;2023-03-26T03:31:21;14.95;;;2.03;;
25938;SDS011;13739;51.172;4.466;2023-03-26T03:33:51;11.63;;;2.17;;
25938;SDS011;13739;51.172;4.466;2023-03-26T03:36:19;12.80;;;2.08;;
25938;SDS011;13739;51.172;4.466;2023-03-26T03:38:51;14.80;;;2.67;;
25938;SDS011;13739;51.172;4.466;2023-03-26T03:41:17;18.52;;;2.33;;
25938;SDS011;13739;51.172;4.466;2023-03-26T03:43:43;14.68;;;3.40;;
25938;SDS011;13739;51.172;4.466;2023-03-26T03:46:09;15.13;;;2.90;;
25938;SDS011;13739;51.172;4.466;2023-03-26T03:48:35;13.35;;;2.53;;
25938;SDS011;13739;51.172;4.466;2023-03-26T03:51:03;13.10;;;2.67;;
25938;SDS011;13739;51.172;4.466;2023-03-26T03:53:30;16.60;;;2.25;;
25938;SDS011;13739;51.172;4.466;2023-03-26T03:55:55;12.63;;;2.50;;
25938;SDS011;13739;51.172;4.466;2023-03-26T03:58:23;11.98;;;2.50;;
25938;SDS011;13739;51.172;4.466;2023-03-26T04:00:52;17.20;;;2.65;;
25938;SDS011;13739;51.172;4.466;2023-03-26T04:03:27;8.73;;;1.90;;
25938;SDS011;13739;51.172;4.466;2023-03-26T04:05:53;10.38;;;2.20;;
25938;SDS011;13739;51.172;4.466;2023-03-26T04:08:20;11.60;;;2.40;;
25938;SDS011;13739;51.172;4.466;2023-03-26T04:10:47;20.73;;;2.28;;
25938;SDS011;13739;51.172;4.466;2023-03-26T04:13:13;16.60;;;2.60;;
25938;SDS011;13739;51.172;4.466;2023-03-26T04:15:39;8.48;;;2.00;;
25938;SDS011;13739;51.172;4.466;2023-03-26T04:18:06;14.05;;;2.47;;
25938;SDS011;13739;51.172;4.466;2023-03-26T04:20:35;15.13;;;2.40;;
25938;SDS011;13739;51.172;4.466;2023-03-26T04:23:02;15.05;;;2.38;;
25938;SDS011;13739;51.172;4.466;2023-03-26T04:25:29;13.15;;;2.40;;
25938;SDS011;13739;51.172;4.466;2023-03-26T04:27:58;11.93;;;2.17;;
25938;SDS011;13739;51.172;4.466;2023-03-26T04:30:30;19.10;;;2.50;;
25938;SDS011;13739;51.172;4.466;2023-03-26T04:32:58;14.95;;;2.55;;
25938;SDS011;13739;51.172;4.466;2023-03-26T04:35:27;13.23;;;3.08;;
25938;SDS011;13739;51.172;4.466;2023-03-26T04:37:58;13.68;;;2.70;;
25938;SDS011;13739;51.172;4.466;2023-03-26T04:40:24;19.73;;;2.75;;
25938;SDS011;13739;51.172;4.466;2023-03-26T04:42:50;15.77;;;2.58;;
25938;SDS011;13739;51.172;4.466;2023-03-26T04:45:18;14.30;;;3.05;;
25938;SDS011;13739;51.172;4.466;2023-03-26T04:47:47;16.08;;;2.25;;
25938;SDS011;13739;51.172;4.466;2023-03-26T04:50:14;14.45;;;2.38;;
25938;SDS011;13739;51.172;4.466;2023-03-26T04:52:40;12.40;;;2.40;;
25938;SDS011;13739;51.172;4.466;2023-03-26T04:55:11;12.23;;;2.40;;
25938;SDS011;13739;51.172;4.466;2023-03-26T04:57:45;11.35;;;2.15;;
25938;SDS011;13739;51.172;4.466;2023-03-26T05:00:17;20.23;;;3.00;;
25938;SDS011;13739;51.172;4.466;2023-03-26T05:02:44;12.48;;;2.33;;
25938;SDS011;13739;51.172;4.466;2023-03-26T05:05:13;15.38;;;2.63;;
25938;SDS011;13739;51.172;4.466;2023-03-26T05:07:39;19.20;;;2.53;;
25938;SDS011;13739;51.172;4.466;2023-03-26T05:10:06;17.65;;;2.70;;
25938;SDS011;13739;51.172;4.466;2023-03-26T05:12:32;17.30;;;3.20;;
25938;SDS011;13739;51.172;4.466;2023-03-26T05:14:59;16.65;;;2.53;;
25938;SDS011;13739;51.172;4.466;2023-03-26T05:17:24;14.82;;;2.63;;
25938;SDS011;13739;51.172;4.466;2023-03-26T05:19:54;13.02;;;2.40;;
25938;SDS011;13739;51.172;4.466;2023-03-26T05:22:20;9.07;;;2.15;;
25938;SDS011;13739;51.172;4.466;2023-03-26T05:24:46;12.77;;;2.17;;
25938;SDS011;13739;51.172;4.466;2023-03-26T05:27:13;10.73;;;2.22;;
25938;SDS011;13739;51.172;4.466;2023-03-26T05:29:41;20.20;;;2.55;;
25938;SDS011;13739;51.172;4.466;2023-03-26T05:32:08;15.10;;;2.55;;
25938;SDS011;13739;51.172;4.466;2023-03-26T05:34:34;14.27;;;2.05;;
25938;SDS011;13739;51.172;4.466;2023-03-26T05:37:01;11.68;;;3.17;;
25938;SDS011;13739;51.172;4.466;2023-03-26T05:39:28;10.93;;;2.13;;
25938;SDS011;13739;51.172;4.466;2023-03-26T05:41:54;11.98;;;2.20;;
25938;SDS011;13739;51.172;4.466;2023-03-26T05:44:19;13.82;;;2.22;;
25938;SDS011;13739;51.172;4.466;2023-03-26T05:46:45;20.02;;;2.80;;
25938;SDS011;13739;51.172;4.466;2023-03-26T05:49:11;11.65;;;2.67;;
25938;SDS011;13739;51.172;4.466;2023-03-26T05:51:37;12.80;;;2.13;;
25938;SDS011;13739;51.172;4.466;2023-03-26T05:54:03;16.77;;;2.60;;
25938;SDS011;13739;51.172;4.466;2023-03-26T05:56:28;12.65;;;1.88;;
25938;SDS011;13739;51.172;4.466;2023-03-26T05:58:54;13.18;;;2.40;;
25938;SDS011;13739;51.172;4.466;2023-03-26T06:01:21;13.73;;;2.67;;
25938;SDS011;13739;51.172;4.466;2023-03-26T06:03:49;13.23;;;2.28;;
25938;SDS011;13739;51.172;4.466;2023-03-26T06:06:16;11.85;;;2.10;;
25938;SDS011;13739;51.172;4.466;2023-03-26T06:08:45;6.80;;;1.90;;
25938;SDS011;13739;51.172;4.466;2023-03-26T06:11:16;18.00;;;3.28;;
25938;SDS011;13739;51.172;4.466;2023-03-26T06:13:43;19.08;;;2.83;;
25938;SDS011;13739;51.172;4.466;2023-03-26T06:16:09;11.23;;;2.70;;
25938;SDS011;13739;51.172;4.466;2023-03-26T06:18:36;13.80;;;2.58;;
25938;SDS011;13739;51.172;4.466;2023-03-26T06:21:02;13.32;;;2.63;;
25938;SDS011;13739;51.172;4.466;2023-03-26T06:23:30;14.43;;;2.35;;
25938;SDS011;13739;51.172;4.466;2023-03-26T06:25:56;14.93;;;2.67;;
25938;SDS011;13739;51.172;4.466;2023-03-26T06:28:22;14.68;;;2.90;;
25938;SDS011;13739;51.172;4.466;2023-03-26T06:30:48;9.75;;;2.00;;
25938;SDS011;13739;51.172;4.466;2023-03-26T06:33:14;7.90;;;2.55;;
25938;SDS011;13739;51.172;4.466;2023-03-26T06:35:40;13.88;;;2.03;;
25938;SDS011;13739;51.172;4.466;2023-03-26T06:38:07;8.20;;;2.00;;
25938;SDS011;13739;51.172;4.466;2023-03-26T06:40:33;18.17;;;2.85;;
25938;SDS011;13739;51.172;4.466;2023-03-26T06:42:59;11.30;;;2.33;;
25938;SDS011;13739;51.172;4.466;2023-03-26T06:45:25;14.63;;;2.80;;
25938;SDS011;13739;51.172;4.466;2023-03-26T06:47:52;12.52;;;2.65;;
25938;SDS011;13739;51.172;4.466;2023-03-26T06:50:17;8.00;;;1.95;;
25938;SDS011;13739;51.172;4.466;2023-03-26T06:52:43;9.50;;;2.00;;
25938;SDS011;13739;51.172;4.466;2023-03-26T06:55:09;4.55;;;1.80;;
25938;SDS011;13739;51.172;4.466;2023-03-26T06:57:35;7.43;;;1.85;;
25938;SDS011;13739;51.172;4.466;2023-03-26T07:00:02;12.60;;;2.38;;
25938;SDS011;13739;51.172;4.466;2023-03-26T07:02:28;10.05;;;1.90;;
25938;SDS011;13739;51.172;4.466;2023-03-26T07:04:54;8.75;;;1.70;;
25938;SDS011;13739;51.172;4.466;2023-03-26T07:07:20;9.65;;;1.90;;
25938;SDS011;13739;51.172;4.466;2023-03-26T07:09:47;6.93;;;1.70;;
25938;SDS011;13739;51.172;4.466;2023-03-26T07:12:13;8.18;;;1.30;;
25938;SDS011;13739;51.172;4.466;2023-03-26T07:14:39;8.82;;;1.83;;
25938;SDS011;13739;51.172;4.466;2023-03-26T07:17:05;8.63;;;1.63;;
25938;SDS011;13739;51.172;4.466;2023-03-26T07:19:31;9.43;;;1.77;;
25938;SDS011;13739;51.172;4.466;2023-03-26T07:21:57;7.93;;;2.25;;
25938;SDS011;13739;51.172;4.466;2023-03-26T07:24:23;9.63;;;2.28;;
25938;SDS011;13739;51.172;4.466;2023-03-26T07:40:15;6.28;;;1.50;;
25938;SDS011;13739;51.172;4.466;2023-03-26T07:43:02;7.82;;;1.38;;
25938;SDS011;13739;51.172;4.466;2023-03-26T07:45:48;4.38;;;1.42;;
25938;SDS011;13739;51.172;4.466;2023-03-26T07:48:15;7.28;;;1.77;;
25938;SDS011;13739;51.172;4.466;2023-03-26T07:50:45;7.20;;;1.55;;
25938;SDS011;13739;51.172;4.466;2023-03-26T07:53:11;9.07;;;1.85;;
25938;SDS011;13739;51.172;4.466;2023-03-26T07:55:40;7.07;;;1.90;;
25938;SDS011;13739;51.172;4.466;2023-03-26T08:01:12;6.82;;;2.15;;
25938;SDS011;13739;51.172;4.466;2023-03-26T08:06:34;8.65;;;2.28;;
25938;SDS011;13739;51.172;4.466;2023-03-26T08:12:17;13.13;;;2.90;;
25938;SDS011;13739;51.172;4.466;2023-03-26T08:14:59;5.68;;;2.30;;
25938;SDS011;13739;51.172;4.466;2023-03-26T08:20:39;11.07;;;2.20;;
25938;SDS011;13739;51.172;4.466;2023-03-26T08:32:17;6.60;;;1.80;;
25938;SDS011;13739;51.172;4.466;2023-03-26T08:34:44;8.93;;;1.92;;
25938;SDS011;13739;51.172;4.466;2023-03-26T08:37:10;6.05;;;1.60;;
25938;SDS011;13739;51.172;4.466;2023-03-26T08:39:36;7.50;;;1.70;;
25938;SDS011;13739;51.172;4.466;2023-03-26T08:45:11;9.70;;;2.05;;
25938;SDS011;13739;51.172;4.466;2023-03-26T09:38:44;2.47;;;1.23;;
25938;SDS011;13739;51.172;4.466;2023-03-26T09:41:41;3.63;;;1.90;;
25938;SDS011;13739;51.172;4.466;2023-03-26T09:55:27;4.40;;;1.38;;
25938;SDS011;13739;51.172;4.466;2023-03-26T09:58:37;4.90;;;1.48;;
25938;SDS011;13739;51.172;4.466;2023-03-26T10:01:13;3.55;;;1.40;;
25938;SDS011;13739;51.172;4.466;2023-03-26T10:06:47;5.50;;;1.40;;
25938;SDS011;13739;51.172;4.466;2023-03-26T10:17:47;6.88;;;1.67;;
25938;SDS011;13739;51.172;4.466;2023-03-26T10:25:54;7.03;;;1.50;;
25938;SDS011;13739;51.172;4.466;2023-03-26T10:37:33;4.05;;;1.50;;
25938;SDS011;13739;51.172;4.466;2023-03-26T10:40:21;3.65;;;1.73;;
25938;SDS011;13739;51.172;4.466;2023-03-26T10:48:39;3.72;;;1.50;;
25938;SDS011;13739;51.172;4.466;2023-03-26T10:57:02;3.35;;;1.40;;
25938;SDS011;13739;51.172;4.466;2023-03-26T10:59:36;2.30;;;1.00;;
25938;SDS011;13739;51.172;4.466;2023-03-26T11:07:38;2.50;;;1.45;;
25938;SDS011;13739;51.172;4.466;2023-03-26T11:15:10;2.95;;;1.30;;
25938;SDS011;13739;51.172;4.466;2023-03-26T11:20:12;2.97;;;1.20;;
25938;SDS011;13739;51.172;4.466;2023-03-26T11:28:09;3.13;;;1.85;;
25938;SDS011;13739;51.172;4.466;2023-03-26T11:33:36;3.83;;;1.40;;
25938;SDS011;13739;51.172;4.466;2023-03-26T11:36:06;3.03;;;1.20;;
25938;SDS011;13739;51.172;4.466;2023-03-26T11:38:36;2.35;;;1.45;;
25938;SDS011;13739;51.172;4.466;2023-03-26T11:41:23;4.03;;;1.20;;
25938;SDS011;13739;51.172;4.466;2023-03-26T11:43:56;4.57;;;1.50;;
25938;SDS011;13739;51.172;4.466;2023-03-26T11:46:29;3.20;;;1.33;;
25938;SDS011;13739;51.172;4.466;2023-03-26T11:48:59;2.13;;;1.10;;
25938;SDS011;13739;51.172;4.466;2023-03-26T11:51:34;2.92;;;0.90;;
25938;SDS011;13739;51.172;4.466;2023-03-26T11:54:02;2.70;;;0.80;;
25938;SDS011;13739;51.172;4.466;2023-03-26T11:59:37;3.35;;;1.10;;
25938;SDS011;13739;51.172;4.466;2023-03-26T12:07:13;3.20;;;1.17;;
25938;SDS011;13739;51.172;4.466;2023-03-26T12:09:49;2.58;;;1.20;;
25938;SDS011;13739;51.172;4.466;2023-03-26T12:12:15;3.22;;;0.70;;
25938;SDS011;13739;51.172;4.466;2023-03-26T12:14:42;0.95;;;0.55;;
25938;SDS011;13739;51.172;4.466;2023-03-26T12:17:11;0.32;;;0.32;;
25938;SDS011;13739;51.172;4.466;2023-03-26T12:30:18;0.60;;;0.40;;
25938;SDS011;13739;51.172;4.466;2023-03-26T12:32:46;1.05;;;0.70;;
25938;SDS011;13739;51.172;4.466;2023-03-26T12:35:15;1.38;;;0.60;;
25938;SDS011;13739;51.172;4.466;2023-03-26T12:37:43;2.55;;;1.02;;
25938;SDS011;13739;51.172;4.466;2023-03-26T12:42:55;1.90;;;1.00;;
25938;SDS011;13739;51.172;4.466;2023-03-26T12:45:27;1.52;;;0.70;;
25938;SDS011;13739;51.172;4.466;2023-03-26T12:48:01;0.82;;;0.80;;
25938;SDS011;13739;51.172;4.466;2023-03-26T12:50:31;1.60;;;0.73;;
25938;SDS011;13739;51.172;4.466;2023-03-26T12:53:23;0.80;;;0.65;;
25938;SDS011;13739;51.172;4.466;2023-03-26T13:04:03;2.83;;;0.90;;
25938;SDS011;13739;51.172;4.466;2023-03-26T13:07:11;3.53;;;0.90;;
25938;SDS011;13739;51.172;4.466;2023-03-26T13:17:50;2.80;;;1.08;;
25938;SDS011;13739;51.172;4.466;2023-03-26T13:23:35;2.05;;;1.30;;
25938;SDS011;13739;51.172;4.466;2023-03-26T13:26:27;2.85;;;1.67;;
25938;SDS011;13739;51.172;4.466;2023-03-26T13:29:19;4.93;;;1.27;;
25938;SDS011;13739;51.172;4.466;2023-03-26T13:32:11;4.55;;;1.50;;
25938;SDS011;13739;51.172;4.466;2023-03-26T13:34:54;4.07;;;1.30;;
25938;SDS011;13739;51.172;4.466;2023-03-26T13:37:38;2.03;;;1.20;;
25938;SDS011;13739;51.172;4.466;2023-03-26T13:46:30;2.70;;;1.40;;
25938;SDS011;13739;51.172;4.466;2023-03-26T13:49:15;3.72;;;1.30;;
25938;SDS011;13739;51.172;4.466;2023-03-26T14:00:48;5.05;;;1.27;;
25938;SDS011;13739;51.172;4.466;2023-03-26T14:05:43;3.38;;;1.23;;
25938;SDS011;13739;51.172;4.466;2023-03-26T14:08:24;2.45;;;1.25;;
25938;SDS011;13739;51.172;4.466;2023-03-26T14:14:11;2.22;;;1.35;;
25938;SDS011;13739;51.172;4.466;2023-03-26T14:16:42;3.58;;;1.40;;
25938;SDS011;13739;51.172;4.466;2023-03-26T14:27:55;3.95;;;1.83;;
25938;SDS011;13739;51.172;4.466;2023-03-26T14:36:09;4.32;;;1.70;;
25938;SDS011;13739;51.172;4.466;2023-03-26T14:41:57;6.32;;;1.95;;
25938;SDS011;13739;51.172;4.466;2023-03-26T14:47:24;3.53;;;1.90;;
25938;SDS011;13739;51.172;4.466;2023-03-26T14:55:11;9.50;;;3.13;;
25938;SDS011;13739;51.172;4.466;2023-03-26T15:51:54;14.95;;;2.90;;
25938;SDS011;13739;51.172;4.466;2023-03-26T15:54:54;13.98;;;3.47;;
25938;SDS011;13739;51.172;4.466;2023-03-26T15:57:25;20.77;;;3.53;;
25938;SDS011;13739;51.172;4.466;2023-03-26T16:08:49;11.70;;;2.42;;
25938;SDS011;13739;51.172;4.466;2023-03-26T16:14:21;14.18;;;2.70;;
25938;SDS011;13739;51.172;4.466;2023-03-26T16:17:21;13.50;;;3.35;;
25938;SDS011;13739;51.172;4.466;2023-03-26T16:28:04;19.80;;;3.08;;
25938;SDS011;13739;51.172;4.466;2023-03-26T16:30:36;8.98;;;2.00;;
25938;SDS011;13739;51.172;4.466;2023-03-26T16:36:00;14.88;;;1.90;;
25938;SDS011;13739;51.172;4.466;2023-03-26T16:41:32;6.75;;;1.70;;
25938;SDS011;13739;51.172;4.466;2023-03-26T16:55:19;14.05;;;2.03;;
25938;SDS011;13739;51.172;4.466;2023-03-26T16:58:07;15.45;;;2.55;;
25938;SDS011;13739;51.172;4.466;2023-03-26T17:03:26;8.45;;;2.00;;
25938;SDS011;13739;51.172;4.466;2023-03-26T17:06:03;8.80;;;1.92;;
25938;SDS011;13739;51.172;4.466;2023-03-26T17:08:58;13.73;;;1.75;;
25938;SDS011;13739;51.172;4.466;2023-03-26T17:11:36;9.93;;;1.77;;
25938;SDS011;13739;51.172;4.466;2023-03-26T17:31:14;10.10;;;1.80;;
25938;SDS011;13739;51.172;4.466;2023-03-26T17:37:08;7.80;;;1.50;;
25938;SDS011;13739;51.172;4.466;2023-03-26T17:42:15;18.23;;;2.95;;
25938;SDS011;13739;51.172;4.466;2023-03-26T17:49:57;12.27;;;1.83;;
25938;SDS011;13739;51.172;4.466;2023-03-26T17:55:17;5.65;;;1.38;;
25938;SDS011;13739;51.172;4.466;2023-03-26T17:57:52;7.78;;;1.45;;
25938;SDS011;13739;51.172;4.466;2023-03-26T18:00:22;15.85;;;2.20;;
25938;SDS011;13739;51.172;4.466;2023-03-26T18:02:57;13.35;;;3.25;;
25938;SDS011;13739;51.172;4.466;2023-03-26T18:05:45;18.63;;;2.22;;
25938;SDS011;13739;51.172;4.466;2023-03-26T18:11:09;16.42;;;1.95;;
25938;SDS011;13739;51.172;4.466;2023-03-26T18:14:08;10.43;;;1.80;;
25938;SDS011;13739;51.172;4.466;2023-03-26T18:16:51;10.07;;;2.20;;
25938;SDS011;13739;51.172;4.466;2023-03-26T18:19:20;7.13;;;2.00;;
25938;SDS011;13739;51.172;4.466;2023-03-26T18:21:48;9.60;;;1.60;;
25938;SDS011;13739;51.172;4.466;2023-03-26T18:24:20;8.88;;;1.90;;
25938;SDS011;13739;51.172;4.466;2023-03-26T18:27:02;7.43;;;1.95;;
25938;SDS011;13739;51.172;4.466;2023-03-26T18:29:35;11.43;;;2.00;;
25938;SDS011;13739;51.172;4.466;2023-03-26T18:34:35;10.85;;;1.80;;
25938;SDS011;13739;51.172;4.466;2023-03-26T18:39:58;8.65;;;1.90;;
25938;SDS011;13739;51.172;4.466;2023-03-26T18:42:39;6.57;;;1.50;;
25938;SDS011;13739;51.172;4.466;2023-03-26T18:47:59;8.55;;;1.58;;
25938;SDS011;13739;51.172;4.466;2023-03-26T18:50:40;3.80;;;1.25;;
25938;SDS011;13739;51.172;4.466;2023-03-26T18:53:07;7.15;;;1.88;;
25938;SDS011;13739;51.172;4.466;2023-03-26T18:55:44;5.82;;;1.73;;
25938;SDS011;13739;51.172;4.466;2023-03-26T19:00:51;8.52;;;2.17;;
25938;SDS011;13739;51.172;4.466;2023-03-26T19:03:21;11.48;;;2.40;;
25938;SDS011;13739;51.172;4.466;2023-03-26T19:05:48;5.20;;;1.23;;
25938;SDS011;13739;51.172;4.466;2023-03-26T19:08:16;13.45;;;1.88;;
25938;SDS011;13739;51.172;4.466;2023-03-26T19:10:42;11.10;;;1.55;;
25938;SDS011;13739;51.172;4.466;2023-03-26T19:13:12;6.13;;;1.40;;
25938;SDS011;13739;51.172;4.466;2023-03-26T19:15:39;7.80;;;1.40;;
25938;SDS011;13739;51.172;4.466;2023-03-26T19:18:07;6.28;;;1.73;;
25938;SDS011;13739;51.172;4.466;2023-03-26T19:23:09;13.38;;;1.73;;
25938;SDS011;13739;51.172;4.466;2023-03-26T19:25:43;13.30;;;1.80;;
25938;SDS011;13739;51.172;4.466;2023-03-26T19:28:22;8.02;;;1.52;;
25938;SDS011;13739;51.172;4.466;2023-03-26T19:33:39;7.60;;;1.55;;
25938;SDS011;13739;51.172;4.466;2023-03-26T19:38:42;6.70;;;1.38;;
25938;SDS011;13739;51.172;4.466;2023-03-26T19:43:57;4.93;;;1.70;;
25938;SDS011;13739;51.172;4.466;2023-03-26T19:46:24;8.38;;;1.30;;
25938;SDS011;13739;51.172;4.466;2023-03-26T19:48:52;8.65;;;1.45;;
25938;SDS011;13739;51.172;4.466;2023-03-26T19:51:24;10.25;;;1.80;;
25938;SDS011;13739;51.172;4.466;2023-03-26T19:53:57;10.35;;;1.55;;
25938;SDS011;13739;51.172;4.466;2023-03-26T19:56:25;7.57;;;1.40;;
25938;SDS011;13739;51.172;4.466;2023-03-26T19:58:51;5.38;;;1.35;;
25938;SDS011;13739;51.172;4.466;2023-03-26T20:01:19;4.50;;;1.02;;
25938;SDS011;13739;51.172;4.466;2023-03-26T20:03:48;8.02;;;1.50;;
25938;SDS011;13739;51.172;4.466;2023-03-26T20:06:17;7.07;;;1.50;;
25938;SDS011;13739;51.172;4.466;2023-03-26T20:08:45;10.60;;;1.95;;
25938;SDS011;13739;51.172;4.466;2023-03-26T20:11:18;5.05;;;1.58;;
25938;SDS011;13739;51.172;4.466;2023-03-26T20:13:45;8.55;;;1.92;;
25938;SDS011;13739;51.172;4.466;2023-03-26T20:18:56;2.67;;;0.93;;
25938;SDS011;13739;51.172;4.466;2023-03-26T20:21:22;8.27;;;1.30;;
25938;SDS011;13739;51.172;4.466;2023-03-26T20:23:49;5.72;;;1.30;;
25938;SDS011;13739;51.172;4.466;2023-03-26T20:26:19;7.70;;;1.42;;
25938;SDS011;13739;51.172;4.466;2023-03-26T20:28:46;7.15;;;1.10;;
25938;SDS011;13739;51.172;4.466;2023-03-26T20:31:16;13.93;;;1.58;;
25938;SDS011;13739;51.172;4.466;2023-03-26T20:33:46;5.32;;;1.80;;
25938;SDS011;13739;51.172;4.466;2023-03-26T20:36:13;11.48;;;1.38;;
25938;SDS011;13739;51.172;4.466;2023-03-26T20:38:40;10.65;;;1.95;;
25938;SDS011;13739;51.172;4.466;2023-03-26T20:41:13;9.32;;;1.52;;
25938;SDS011;13739;51.172;4.466;2023-03-26T20:43:40;10.65;;;1.80;;
25938;SDS011;13739;51.172;4.466;2023-03-26T20:46:09;7.95;;;1.50;;
25938;SDS011;13739;51.172;4.466;2023-03-26T20:48:42;12.57;;;3.58;;
25938;SDS011;13739;51.172;4.466;2023-03-26T20:51:09;4.38;;;1.20;;
25938;SDS011;13739;51.172;4.466;2023-03-26T20:53:38;10.00;;;1.38;;
25938;SDS011;13739;51.172;4.466;2023-03-26T20:56:09;8.35;;;1.92;;
25938;SDS011;13739;51.172;4.466;2023-03-26T20:58:37;5.10;;;1.38;;
25938;SDS011;13739;51.172;4.466;2023-03-26T21:01:04;5.05;;;1.38;;
25938;SDS011;13739;51.172;4.466;2023-03-26T21:03:30;10.68;;;1.30;;
25938;SDS011;13739;51.172;4.466;2023-03-26T21:06:00;8.75;;;1.58;;
25938;SDS011;13739;51.172;4.466;2023-03-26T21:08:26;9.70;;;1.90;;
25938;SDS011;13739;51.172;4.466;2023-03-26T21:10:59;10.65;;;1.75;;
25938;SDS011;13739;51.172;4.466;2023-03-26T21:13:38;7.72;;;1.17;;
25938;SDS011;13739;51.172;4.466;2023-03-26T21:16:09;10.10;;;1.92;;
25938;SDS011;13739;51.172;4.466;2023-03-26T21:18:36;12.75;;;2.45;;
25938;SDS011;13739;51.172;4.466;2023-03-26T21:24:25;9.65;;;1.33;;
25938;SDS011;13739;51.172;4.466;2023-03-26T21:29:42;11.15;;;1.30;;
25938;SDS011;13739;51.172;4.466;2023-03-26T21:32:09;17.65;;;1.73;;
25938;SDS011;13739;51.172;4.466;2023-03-26T21:34:36;18.38;;;2.30;;
25938;SDS011;13739;51.172;4.466;2023-03-26T21:37:02;14.73;;;2.00;;
25938;SDS011;13739;51.172;4.466;2023-03-26T21:39:28;8.38;;;1.35;;
25938;SDS011;13739;51.172;4.466;2023-03-26T21:41:54;13.70;;;1.90;;
25938;SDS011;13739;51.172;4.466;2023-03-26T21:44:21;13.68;;;1.90;;
25938;SDS011;13739;51.172;4.466;2023-03-26T21:46:47;6.75;;;2.13;;
25938;SDS011;13739;51.172;4.466;2023-03-26T21:49:14;6.43;;;1.50;;
25938;SDS011;13739;51.172;4.466;2023-03-26T21:51:41;2.88;;;1.50;;
25938;SDS011;13739;51.172;4.466;2023-03-26T21:54:20;9.30;;;1.48;;
25938;SDS011;13739;51.172;4.466;2023-03-26T21:57:08;6.15;;;1.77;;
25938;SDS011;13739;51.172;4.466;2023-03-26T21:59:44;13.40;;;1.67;;
25938;SDS011;13739;51.172;4.466;2023-03-26T22:04:48;6.93;;;1.25;;
25938;SDS011;13739;51.172;4.466;2023-03-26T22:07:29;15.40;;;2.08;;
25938;SDS011;13739;51.172;4.466;2023-03-26T22:09:59;9.73;;;1.50;;
25938;SDS011;13739;51.172;4.466;2023-03-26T22:12:24;6.15;;;1.35;;
25938;SDS011;13739;51.172;4.466;2023-03-26T22:14:51;9.07;;;1.75;;
25938;SDS011;13739;51.172;4.466;2023-03-26T22:17:17;14.10;;;1.60;;
25938;SDS011;13739;51.172;4.466;2023-03-26T22:19:42;12.60;;;1.60;;